Time;durP1;ratioP1;P1;durP2;ratioP2;P2;SDS_P1;SDS_P2;PMS_P1;PMS_P2;Temp;Humidity;BMP_temperature;BMP_pressure;BME280_temperature;BME280_humidity;BME280_pressure;Samples;Min_cycle;Max_cycle;Signal;HPM_P1;HPM_P2
2023/04/23 00:02:07;;;;;;;46.95;31.10;;;11.80;99.90;;;;;;5013710;28;20045;-77
2023/04/23 00:04:37;;;;;;;51.58;32.78;;;11.80;99.90;;;;;;5016710;28;20068;-77
2023/04/23 00:07:04;;;;;;;52.35;33.30;;;11.80;99.90;;;;;;5002812;28;20045;-77
2023/04/23 00:09:32;;;;;;;59.63;35.05;;;11.80;99.90;;;;;;5002401;28;20060;-77
2023/04/23 00:12:00;;;;;;;54.05;34.13;;;11.80;99.90;;;;;;5004554;28;20514;-78
2023/04/23 00:14:28;;;;;;;64.22;37.60;;;11.80;99.90;;;;;;5017803;28;20038;-78
2023/04/23 00:16:54;;;;;;;66.63;39.90;;;11.80;99.90;;;;;;5002888;28;20503;-78
2023/04/23 00:19:21;;;;;;;74.60;41.45;;;11.70;99.90;;;;;;5016485;28;20129;-77
2023/04/23 00:21:48;;;;;;;74.22;42.58;;;11.80;99.90;;;;;;5012724;28;20492;-77
2023/04/23 00:24:15;;;;;;;75.25;42.58;;;11.80;99.90;;;;;;5011721;28;20133;-77
2023/04/23 00:26:41;;;;;;;78.80;44.90;;;11.80;99.90;;;;;;5012069;28;20466;-77
2023/04/23 00:29:08;;;;;;;85.00;48.20;;;11.70;99.90;;;;;;5011964;28;20191;-77
2023/04/23 00:31:35;;;;;;;85.53;47.17;;;11.70;99.90;;;;;;5015482;28;20050;-77
2023/04/23 00:34:02;;;;;;;95.55;53.47;;;11.70;99.90;;;;;;5010013;28;20069;-77
2023/04/23 00:36:29;;;;;;;99.68;54.55;;;11.70;99.90;;;;;;5014633;28;20064;-77
2023/04/23 00:38:56;;;;;;;119.40;56.45;;;11.70;99.90;;;;;;4996857;28;20156;-77
2023/04/23 00:41:23;;;;;;;115.13;56.92;;;11.70;99.90;;;;;;5019940;28;20057;-77
2023/04/23 00:43:52;;;;;;;113.10;56.92;;;11.70;99.90;;;;;;5011722;28;20065;-77
2023/04/23 00:46:19;;;;;;;120.07;60.17;;;11.60;99.90;;;;;;5004854;28;20573;-77
2023/04/23 00:48:47;;;;;;;113.15;59.08;;;11.60;99.90;;;;;;4991221;28;20044;-77
2023/04/23 00:51:15;;;;;;;125.15;61.17;;;11.50;99.90;;;;;;5001033;28;20650;-77
2023/04/23 00:53:42;;;;;;;126.85;61.03;;;11.60;99.90;;;;;;5020406;28;20628;-77
2023/04/23 00:56:09;;;;;;;119.35;61.75;;;11.60;99.90;;;;;;4997046;28;20061;-77
2023/04/23 00:58:37;;;;;;;133.45;63.38;;;11.50;99.90;;;;;;5007432;28;20070;-77
2023/04/23 01:01:04;;;;;;;134.98;64.38;;;11.40;99.90;;;;;;5015831;28;20049;-77
2023/04/23 01:03:33;;;;;;;137.00;65.25;;;11.50;99.90;;;;;;5020041;28;20045;-78
2023/04/23 01:06:00;;;;;;;145.23;66.07;;;11.50;99.90;;;;;;5024094;28;20061;-77
2023/04/23 01:08:27;;;;;;;138.75;65.32;;;11.50;99.90;;;;;;5007911;28;20410;-77
2023/04/23 01:10:54;;;;;;;142.98;67.47;;;11.50;99.90;;;;;;5019998;28;20534;-77
2023/04/23 01:13:35;;;;;;;139.65;65.22;;;11.50;99.90;;;;;;5019145;28;20041;-77
2023/04/23 01:16:02;;;;;;;144.38;64.18;;;11.40;99.90;;;;;;4970909;28;20648;-73
2023/04/23 01:18:29;;;;;;;136.05;65.15;;;11.40;99.90;;;;;;4952536;28;20259;-74
2023/04/23 01:20:56;;;;;;;155.07;66.95;;;11.50;99.90;;;;;;4949027;28;20045;-73
2023/04/23 01:23:23;;;;;;;139.00;65.78;;;11.50;99.90;;;;;;4956271;28;20061;-74
2023/04/23 01:25:49;;;;;;;129.25;62.70;;;11.50;99.90;;;;;;4949044;28;20426;-74
2023/04/23 01:28:16;;;;;;;143.13;65.03;;;11.50;99.90;;;;;;4945291;28;20497;-73
2023/04/23 01:30:44;;;;;;;139.10;62.75;;;11.50;99.90;;;;;;4950316;28;20049;-73
2023/04/23 01:33:11;;;;;;;137.70;63.95;;;11.40;99.90;;;;;;4953055;28;20062;-73
2023/04/23 01:35:40;;;;;;;133.38;63.50;;;11.40;99.90;;;;;;4938688;28;20528;-72
2023/04/23 01:38:09;;;;;;;134.32;62.33;;;11.40;99.90;;;;;;4973154;28;20506;-72
2023/04/23 01:40:37;;;;;;;135.88;64.10;;;11.30;99.90;;;;;;4932759;28;20047;-72
2023/04/23 01:43:04;;;;;;;134.10;63.03;;;11.20;99.90;;;;;;4953311;28;20059;-73
2023/04/23 01:45:31;;;;;;;131.23;61.45;;;11.20;99.90;;;;;;4947531;28;20109;-73
2023/04/23 01:48:01;;;;;;;137.82;62.20;;;11.30;99.90;;;;;;4947606;28;20073;-72
2023/04/23 01:50:28;;;;;;;151.57;65.25;;;11.30;99.90;;;;;;4985839;28;20068;-72
2023/04/23 01:52:55;;;;;;;151.10;66.38;;;11.20;99.90;;;;;;4955016;28;20497;-73
2023/04/23 01:55:22;;;;;;;156.02;68.28;;;11.10;99.90;;;;;;4938466;28;20613;-73
2023/04/23 01:57:50;;;;;;;153.93;66.43;;;11.20;99.90;;;;;;4957554;28;20482;-73
2023/04/23 02:00:17;;;;;;;145.70;68.13;;;11.20;99.90;;;;;;4952435;28;20800;-72
2023/04/23 02:02:43;;;;;;;150.32;67.05;;;11.20;99.90;;;;;;4955060;28;20149;-73
2023/04/23 02:05:14;;;;;;;165.88;72.78;;;11.10;99.90;;;;;;4937651;28;20142;-72
2023/04/23 02:07:41;;;;;;;146.02;67.32;;;11.10;99.90;;;;;;4950033;28;20055;-72
2023/04/23 02:10:08;;;;;;;153.40;69.10;;;11.10;99.90;;;;;;4947959;28;20055;-72
2023/04/23 02:12:36;;;;;;;184.88;78.53;;;11.10;99.90;;;;;;4952635;28;20082;-73
2023/04/23 02:15:03;;;;;;;180.73;79.03;;;11.00;99.90;;;;;;4951232;28;20042;-73
2023/04/23 02:17:30;;;;;;;195.07;81.57;;;10.90;99.90;;;;;;4956300;28;20390;-72
2023/04/23 02:19:57;;;;;;;210.77;86.78;;;10.80;99.90;;;;;;4956496;28;20232;-73
2023/04/23 02:22:25;;;;;;;231.50;91.60;;;10.70;99.90;;;;;;4968599;28;20043;-73
2023/04/23 02:24:52;;;;;;;232.65;91.57;;;10.70;99.90;;;;;;4951070;28;20043;-73
2023/04/23 02:27:19;;;;;;;226.65;91.20;;;10.70;99.90;;;;;;4951172;28;20058;-73
2023/04/23 02:29:47;;;;;;;215.48;89.28;;;10.70;99.90;;;;;;4955742;28;20055;-73
2023/04/23 02:32:16;;;;;;;201.43;85.68;;;10.60;99.90;;;;;;4953477;28;20050;-73
2023/04/23 02:34:43;;;;;;;199.30;85.32;;;10.50;99.90;;;;;;4949855;28;20528;-73
2023/04/23 02:37:10;;;;;;;189.13;79.43;;;10.50;99.90;;;;;;4954915;28;20054;-73
2023/04/23 02:39:40;;;;;;;195.10;85.65;;;10.50;99.90;;;;;;4953999;28;20193;-74
2023/04/23 02:42:07;;;;;;;202.38;83.20;;;10.50;99.90;;;;;;4952437;28;20051;-74
2023/04/23 02:44:34;;;;;;;206.23;85.28;;;10.50;99.90;;;;;;4956696;28;20039;-73
2023/04/23 02:47:00;;;;;;;199.80;85.28;;;10.50;99.90;;;;;;4960113;28;21649;-74
2023/04/23 02:49:27;;;;;;;202.63;86.38;;;10.50;99.90;;;;;;4945189;28;20043;-73
2023/04/23 02:51:54;;;;;;;205.95;86.30;;;10.40;99.90;;;;;;4953973;28;20039;-74
2023/04/23 02:54:21;;;;;;;218.98;87.82;;;10.40;99.90;;;;;;4948601;28;20058;-73
2023/04/23 02:56:47;;;;;;;207.32;88.75;;;10.40;99.90;;;;;;4943231;28;20066;-74
2023/04/23 02:59:14;;;;;;;217.52;86.25;;;10.30;99.90;;;;;;4973120;28;20042;-74
2023/04/23 03:01:42;;;;;;;201.43;88.60;;;10.30;99.90;;;;;;4972111;28;20047;-74
2023/04/23 03:04:11;;;;;;;210.60;85.93;;;10.40;99.90;;;;;;4953814;28;20548;-74
2023/04/23 03:06:37;;;;;;;212.90;86.15;;;10.40;99.90;;;;;;4933907;28;20047;-74
2023/04/23 03:09:04;;;;;;;218.77;85.70;;;10.30;99.90;;;;;;4956829;28;20046;-74
2023/04/23 03:11:31;;;;;;;204.55;85.97;;;10.30;99.90;;;;;;4937824;28;20057;-74
2023/04/23 03:13:58;;;;;;;224.23;87.20;;;10.20;99.90;;;;;;4955253;28;20041;-74
2023/04/23 03:16:27;;;;;;;222.48;89.40;;;10.20;99.90;;;;;;4953921;28;20054;-74
2023/04/23 03:18:54;;;;;;;211.65;88.55;;;10.20;99.90;;;;;;4957562;28;20105;-74
2023/04/23 03:21:21;;;;;;;211.45;86.57;;;10.20;99.90;;;;;;4945361;28;20523;-74
2023/04/23 03:23:48;;;;;;;225.15;88.97;;;10.10;99.90;;;;;;4949395;28;20093;-74
2023/04/23 03:26:16;;;;;;;222.45;86.65;;;10.00;99.90;;;;;;4936531;28;20142;-73
2023/04/23 03:28:42;;;;;;;214.73;88.82;;;10.10;99.90;;;;;;4956689;28;20501;-74
2023/04/23 03:31:10;;;;;;;212.70;84.00;;;10.10;99.90;;;;;;4956026;28;20579;-74
2023/04/23 03:33:37;;;;;;;212.05;86.40;;;10.00;99.90;;;;;;4937781;28;20046;-74
2023/04/23 03:36:04;;;;;;;197.20;79.72;;;10.10;99.90;;;;;;4952512;28;20047;-74
2023/04/23 03:38:31;;;;;;;203.38;83.15;;;10.00;99.90;;;;;;4956266;28;20278;-74
2023/04/23 03:40:59;;;;;;;184.02;76.75;;;9.90;99.90;;;;;;4939799;28;20047;-74
2023/04/23 03:43:26;;;;;;;191.50;78.25;;;9.80;99.90;;;;;;4982083;28;20057;-74
2023/04/23 03:46:14;;;;;;;189.20;76.95;;;9.80;99.90;;;;;;4941287;28;20054;-73
2023/04/23 03:48:41;;;;;;;199.13;80.55;;;9.80;99.90;;;;;;4965583;28;20502;-74
2023/04/23 03:51:14;;;;;;;189.02;81.25;;;9.70;99.90;;;;;;4954532;28;20142;-74
2023/04/23 03:53:45;;;;;;;186.88;81.07;;;9.80;99.90;;;;;;4953603;28;20489;-74
2023/04/23 03:56:29;;;;;;;189.30;80.88;;;9.80;99.90;;;;;;4953984;28;20560;-74
2023/04/23 03:59:08;;;;;;;200.07;80.25;;;9.80;99.90;;;;;;4950634;28;20046;-75
2023/04/23 04:01:35;;;;;;;191.52;81.65;;;9.80;99.90;;;;;;4949769;28;20043;-74
2023/04/23 04:04:02;;;;;;;191.00;80.40;;;9.80;99.90;;;;;;4954111;28;20401;-74
2023/04/23 04:06:31;;;;;;;189.55;80.93;;;9.80;99.90;;;;;;4948140;28;20046;-74
2023/04/23 04:08:58;;;;;;;183.43;82.25;;;9.70;99.90;;;;;;4953951;28;20050;-74
2023/04/23 04:11:25;;;;;;;199.32;82.70;;;9.70;99.90;;;;;;4950348;28;20268;-74
2023/04/23 04:13:51;;;;;;;191.15;80.60;;;9.80;99.90;;;;;;4948288;28;20070;-74
2023/04/23 04:16:18;;;;;;;197.18;84.10;;;9.80;99.90;;;;;;4949474;28;20050;-74
2023/04/23 04:18:45;;;;;;;197.15;81.43;;;9.80;99.90;;;;;;4956853;28;20046;-74
2023/04/23 04:21:11;;;;;;;193.27;83.53;;;9.80;99.90;;;;;;4946185;28;20271;-74
2023/04/23 04:23:38;;;;;;;206.88;84.55;;;9.80;99.90;;;;;;4951236;28;20520;-74
2023/04/23 04:26:06;;;;;;;197.50;83.40;;;9.80;99.90;;;;;;4951447;28;20077;-74
2023/04/23 04:28:35;;;;;;;204.40;83.78;;;9.80;99.90;;;;;;4941760;28;20050;-74
2023/04/23 04:31:02;;;;;;;194.93;82.45;;;9.80;99.90;;;;;;4954410;28;20173;-74
2023/04/23 04:33:29;;;;;;;208.55;82.32;;;9.90;99.90;;;;;;4948748;28;20544;-74
2023/04/23 04:35:56;;;;;;;213.50;87.25;;;9.90;99.90;;;;;;4954746;28;20034;-74
2023/04/23 04:38:23;;;;;;;196.05;80.40;;;9.90;99.90;;;;;;4956031;28;20046;-74
2023/04/23 04:40:49;;;;;;;203.98;87.30;;;9.90;99.90;;;;;;4952743;28;20046;-74
2023/04/23 04:43:17;;;;;;;200.63;81.68;;;9.90;99.90;;;;;;4953358;28;20050;-74
2023/04/23 04:45:43;;;;;;;189.13;79.43;;;9.90;99.90;;;;;;4954022;28;20227;-74
2023/04/23 04:48:10;;;;;;;188.93;78.28;;;9.90;99.90;;;;;;4954797;28;20055;-74
2023/04/23 04:50:37;;;;;;;206.10;86.55;;;9.90;99.90;;;;;;4948092;28;20047;-74
2023/04/23 04:53:03;;;;;;;194.77;84.63;;;9.80;99.90;;;;;;4954557;28;20050;-74
2023/04/23 04:55:30;;;;;;;202.40;80.95;;;9.90;99.90;;;;;;4947100;28;20561;-74
2023/04/23 04:57:57;;;;;;;198.20;85.53;;;9.90;99.90;;;;;;4953920;28;20081;-74
2023/04/23 05:00:28;;;;;;;192.90;83.32;;;9.90;99.90;;;;;;4950369;28;20053;-74
2023/04/23 05:02:56;;;;;;;185.23;81.70;;;10.00;99.90;;;;;;4958101;28;20151;-74
2023/04/23 05:05:24;;;;;;;192.27;82.05;;;10.00;99.90;;;;;;4949974;28;20200;-75
2023/04/23 05:07:58;;;;;;;186.60;78.53;;;10.00;99.90;;;;;;4966753;22;20269;-76
2023/04/23 05:10:25;;;;;;;187.55;77.78;;;10.00;99.90;;;;;;4944293;28;20052;-76
2023/04/23 05:12:52;;;;;;;203.63;82.25;;;9.90;99.90;;;;;;4927913;28;20481;-77
2023/04/23 05:15:19;;;;;;;187.77;81.95;;;9.90;99.90;;;;;;4940341;28;20043;-77
2023/04/23 05:17:46;;;;;;;194.00;81.07;;;9.90;99.90;;;;;;4951070;28;20039;-77
2023/04/23 05:20:13;;;;;;;194.60;82.28;;;10.00;99.90;;;;;;4943345;28;20042;-77
2023/04/23 05:22:41;;;;;;;198.73;83.00;;;10.00;99.90;;;;;;4946800;28;20039;-76
2023/04/23 05:25:10;;;;;;;192.23;82.57;;;9.90;99.90;;;;;;4946523;28;20038;-77
2023/04/23 05:27:38;;;;;;;208.52;87.55;;;10.00;99.90;;;;;;4946416;28;20143;-76
2023/04/23 05:30:07;;;;;;;201.55;83.72;;;10.00;99.90;;;;;;4934191;28;20177;-76
2023/04/23 05:32:34;;;;;;;212.23;83.57;;;10.00;99.90;;;;;;4950892;28;20107;-78
2023/04/23 05:35:02;;;;;;;220.25;86.32;;;10.00;99.90;;;;;;4949471;28;20118;-78
2023/04/23 05:37:29;;;;;;;204.50;82.78;;;10.00;99.90;;;;;;4938795;28;21223;-77
2023/04/23 05:39:59;;;;;;;208.30;84.68;;;10.00;99.90;;;;;;4939447;28;20039;-76
2023/04/23 05:42:26;;;;;;;211.63;86.88;;;10.00;99.90;;;;;;4941861;28;20492;-76
2023/04/23 05:44:53;;;;;;;215.43;85.65;;;10.00;99.90;;;;;;4945929;28;20042;-78
2023/04/23 05:47:20;;;;;;;203.98;84.63;;;10.00;99.90;;;;;;4949965;28;20038;-76
2023/04/23 05:49:47;;;;;;;200.15;81.05;;;10.10;99.90;;;;;;4939135;28;20046;-76
2023/04/23 05:52:14;;;;;;;190.88;82.38;;;10.10;99.90;;;;;;4947890;28;20034;-75
2023/04/23 05:54:41;;;;;;;198.23;83.13;;;10.10;99.90;;;;;;4944505;28;20129;-76
2023/04/23 05:57:08;;;;;;;189.80;79.03;;;10.10;99.90;;;;;;4930994;28;20429;-76
2023/04/23 05:59:35;;;;;;;184.43;77.55;;;10.20;99.90;;;;;;4922644;28;20422;-76
2023/04/23 06:02:02;;;;;;;185.95;77.55;;;10.20;99.90;;;;;;4947561;28;20383;-77
2023/04/23 06:04:28;;;;;;;173.43;77.43;;;10.20;99.90;;;;;;4952720;28;20047;-78
2023/04/23 06:06:55;;;;;;;178.23;76.72;;;10.20;99.90;;;;;;4949132;28;20138;-78
2023/04/23 06:09:22;;;;;;;180.82;75.70;;;10.30;99.90;;;;;;4947907;28;20138;-77
2023/04/23 06:11:51;;;;;;;172.48;76.55;;;10.40;99.90;;;;;;4934099;28;20128;-77
2023/04/23 06:14:18;;;;;;;168.98;76.90;;;10.50;99.90;;;;;;4946905;28;20074;-78
2023/04/23 06:16:45;;;;;;;149.75;70.85;;;10.60;99.90;;;;;;4942447;28;20660;-78
2023/04/23 06:19:12;;;;;;;147.02;71.90;;;10.60;99.90;;;;;;4943553;28;20570;-77
2023/04/23 06:21:38;;;;;;;146.52;68.28;;;10.60;99.90;;;;;;4937985;28;20780;-77
2023/04/23 06:24:09;;;;;;;133.55;65.15;;;10.60;99.90;;;;;;4948426;28;20531;-77
2023/04/23 06:26:35;;;;;;;137.27;64.97;;;10.70;99.90;;;;;;4939938;28;20047;-76
2023/04/23 06:29:10;;;;;;;136.68;65.28;;;10.60;99.90;;;;;;4933849;28;20041;-75
2023/04/23 06:31:46;;;;;;;123.07;62.00;;;10.70;99.90;;;;;;4935838;28;20047;-75
2023/04/23 06:34:13;;;;;;;122.90;63.58;;;10.80;99.90;;;;;;4934822;28;20080;-76
2023/04/23 06:36:40;;;;;;;122.07;61.55;;;10.90;99.90;;;;;;4944877;28;20042;-75
2023/04/23 06:39:06;;;;;;;98.97;56.38;;;11.20;99.90;;;;;;4944475;28;20293;-76
2023/04/23 06:41:33;;;;;;;82.85;51.25;;;11.40;99.90;;;;;;4944688;28;20073;-76
2023/04/23 06:44:12;;;;;;;77.55;50.67;;;11.60;99.90;;;;;;4949171;28;21521;-76
2023/04/23 06:46:46;;;;;;;83.10;54.10;;;11.90;99.90;;;;;;4950947;28;20172;-75
2023/04/23 06:49:13;;;;;;;61.85;45.75;;;12.10;99.90;;;;;;4938374;28;20563;-74
2023/04/23 06:51:40;;;;;;;57.97;49.85;;;12.50;99.90;;;;;;4938062;28;20047;-74
2023/04/23 06:54:07;;;;;;;60.83;49.60;;;12.50;99.90;;;;;;4944750;28;20084;-74
2023/04/23 06:56:33;;;;;;;59.20;49.70;;;12.60;99.90;;;;;;4945736;28;20724;-77
2023/04/23 06:59:00;;;;;;;57.70;48.75;;;12.80;99.90;;;;;;4941487;28;20073;-74
2023/04/23 07:01:28;;;;;;;55.22;46.45;;;12.90;99.90;;;;;;4939148;28;20047;-74
2023/04/23 07:03:55;;;;;;;48.95;43.50;;;12.90;99.90;;;;;;4946136;28;20046;-72
2023/04/23 07:06:21;;;;;;;51.05;45.28;;;12.80;99.90;;;;;;4925728;28;20042;-74
2023/04/23 07:08:48;;;;;;;58.33;51.92;;;12.90;99.90;;;;;;4942681;28;20229;-73
2023/04/23 07:11:15;;;;;;;53.90;48.17;;;13.20;99.90;;;;;;4922751;28;20533;-73
2023/04/23 07:13:42;;;;;;;51.35;46.38;;;13.20;99.90;;;;;;4944927;28;20631;-74
2023/04/23 07:16:08;;;;;;;50.35;45.20;;;13.10;99.90;;;;;;4934812;28;20535;-73
2023/04/23 07:18:35;;;;;;;49.05;44.22;;;13.00;99.90;;;;;;4920929;28;20047;-73
2023/04/23 07:21:02;;;;;;;53.13;48.08;;;13.00;99.90;;;;;;4935310;28;20057;-75
2023/04/23 07:23:29;;;;;;;52.65;47.97;;;12.90;99.90;;;;;;4936035;28;20544;-75
2023/04/23 07:25:55;;;;;;;50.78;46.28;;;12.70;99.90;;;;;;4934242;28;20062;-73
2023/04/23 07:28:22;;;;;;;50.00;45.65;;;12.80;99.90;;;;;;4935138;28;20122;-74
2023/04/23 07:30:49;;;;;;;52.28;47.58;;;12.90;99.90;;;;;;4937441;28;20061;-74
2023/04/23 07:33:16;;;;;;;49.08;44.70;;;12.90;99.90;;;;;;4943699;28;20046;-74
2023/04/23 07:35:42;;;;;;;48.75;44.38;;;12.90;99.90;;;;;;4937612;28;20133;-74
2023/04/23 07:38:09;;;;;;;48.35;44.15;;;13.10;99.90;;;;;;4935066;28;20063;-74
2023/04/23 07:40:36;;;;;;;46.22;42.28;;;13.10;99.90;;;;;;4938061;28;20221;-73
2023/04/23 07:43:03;;;;;;;46.40;42.90;;;13.30;99.90;;;;;;4945017;28;20046;-74
2023/04/23 07:45:30;;;;;;;42.25;38.85;;;13.40;99.90;;;;;;4934699;28;20372;-75
2023/04/23 07:47:57;;;;;;;43.20;40.00;;;13.80;99.90;;;;;;4938454;28;20070;-75
2023/04/23 07:50:24;;;;;;;44.47;41.08;;;14.40;99.90;;;;;;4941046;28;20093;-75
2023/04/23 07:52:51;;;;;;;47.67;44.42;;;14.60;99.90;;;;;;4941488;28;20208;-74
2023/04/23 07:55:19;;;;;;;47.95;44.65;;;14.90;99.90;;;;;;4940403;28;20046;-75
2023/04/23 07:57:45;;;;;;;48.92;45.47;;;15.30;99.90;;;;;;4936803;28;20042;-72
2023/04/23 08:00:13;;;;;;;49.65;46.13;;;15.40;99.90;;;;;;4937703;28;20046;-75
2023/04/23 08:02:39;;;;;;;49.88;46.55;;;15.50;99.90;;;;;;4935229;28;20041;-73
2023/04/23 08:05:07;;;;;;;50.30;46.88;;;15.70;99.90;;;;;;4937432;28;20042;-74
2023/04/23 08:07:35;;;;;;;49.67;46.30;;;15.70;99.90;;;;;;4937470;28;20133;-73
2023/04/23 08:10:04;;;;;;;48.17;45.05;;;15.80;99.90;;;;;;4938688;28;20055;-76
2023/04/23 08:12:34;;;;;;;54.33;50.53;;;16.00;99.90;;;;;;4937620;28;20039;-73
2023/04/23 08:15:02;;;;;;;48.60;45.50;;;16.30;99.90;;;;;;4941485;28;20038;-74
2023/04/23 08:17:35;;;;;;;45.67;42.55;;;16.30;99.90;;;;;;4930688;28;20133;-72
2023/04/23 08:20:05;;;;;;;38.53;35.78;;;16.30;99.90;;;;;;4938303;28;20049;-73
2023/04/23 08:22:32;;;;;;;38.20;35.58;;;16.50;99.90;;;;;;4935856;28;20578;-75
2023/04/23 08:24:58;;;;;;;46.13;43.28;;;16.90;99.90;;;;;;4938212;28;20456;-73
2023/04/23 08:27:25;;;;;;;46.38;43.22;;;17.20;99.90;;;;;;4940692;28;20488;-73
2023/04/23 08:29:52;;;;;;;44.78;41.88;;;17.10;99.90;;;;;;4920873;28;20086;-72
2023/04/23 08:32:19;;;;;;;44.83;41.92;;;17.30;99.90;;;;;;4929906;28;20049;-73
2023/04/23 08:34:46;;;;;;;45.17;42.28;;;17.30;99.90;;;;;;4936157;28;20644;-75
2023/04/23 08:37:12;;;;;;;44.75;41.85;;;17.40;99.90;;;;;;4923091;28;20074;-73
2023/04/23 08:39:53;;;;;;;45.40;42.42;;;17.30;99.90;;;;;;4937034;28;20220;-74
2023/04/23 08:42:36;;;;;;;48.47;45.47;;;17.10;99.90;;;;;;4933593;28;20313;-74
2023/04/23 08:45:04;;;;;;;44.35;41.55;;;17.00;99.90;;;;;;4936031;28;20046;-76
2023/04/23 08:47:32;;;;;;;43.03;39.85;;;16.60;99.90;;;;;;4922558;28;20031;-76
2023/04/23 08:49:59;;;;;;;38.58;36.08;;;16.30;99.90;;;;;;4937288;28;20038;-74
2023/04/23 08:52:31;;;;;;;40.42;37.40;;;16.30;99.90;;;;;;4932325;28;20047;-73
2023/04/23 08:55:00;;;;;;;42.83;39.95;;;16.80;99.90;;;;;;4921868;28;20050;-74
2023/04/23 08:57:27;;;;;;;42.13;39.25;;;17.00;99.90;;;;;;4940972;28;20247;-73
2023/04/23 08:59:55;;;;;;;39.08;36.50;;;17.50;99.90;;;;;;4939925;28;20409;-73
2023/04/23 09:02:23;;;;;;;41.25;38.50;;;17.70;99.90;;;;;;4939428;28;20039;-75
2023/04/23 09:04:53;;;;;;;38.50;35.85;;;17.60;99.90;;;;;;4925126;28;20040;-74
2023/04/23 09:07:22;;;;;;;40.47;37.45;;;17.30;99.90;;;;;;4938886;28;20100;-74
2023/04/23 09:09:49;;;;;;;41.58;38.97;;;17.00;99.90;;;;;;4915958;28;20042;-74
2023/04/23 09:12:15;;;;;;;43.20;40.17;;;16.80;99.90;;;;;;4937951;28;20153;-73
2023/04/23 09:14:42;;;;;;;37.92;35.45;;;16.70;99.90;;;;;;4937953;28;20140;-73
2023/04/23 09:17:10;;;;;;;35.42;33.05;;;16.60;99.90;;;;;;4922542;28;20093;-74
2023/04/23 09:19:38;;;;;;;41.50;38.65;;;16.70;99.90;;;;;;4937426;28;20045;-75
2023/04/23 09:22:06;;;;;;;41.22;38.40;;;16.70;99.90;;;;;;4939787;28;20038;-74
2023/04/23 09:24:33;;;;;;;42.20;39.33;;;16.70;99.90;;;;;;4938553;28;20297;-74
2023/04/23 09:27:01;;;;;;;38.15;35.55;;;16.30;99.90;;;;;;4943947;28;20066;-75
2023/04/23 09:29:29;;;;;;;35.58;32.97;;;16.10;99.90;;;;;;4936083;28;20078;-74
2023/04/23 09:32:07;;;;;;;36.72;34.22;;;16.10;99.90;;;;;;4922719;28;20508;-75
2023/04/23 09:34:36;;;;;;;37.25;34.65;;;16.30;99.90;;;;;;4938096;28;20123;-72
2023/04/23 09:37:05;;;;;;;37.95;35.28;;;16.70;99.90;;;;;;4938061;28;20431;-73
2023/04/23 09:39:33;;;;;;;37.38;34.63;;;16.80;99.90;;;;;;4935934;28;20150;-72
2023/04/23 09:42:04;;;;;;;39.88;37.10;;;16.50;99.90;;;;;;4937476;28;20476;-74
2023/04/23 09:44:32;;;;;;;36.28;33.67;;;16.30;99.90;;;;;;4935736;28;20087;-73
2023/04/23 09:47:08;;;;;;;35.28;33.00;;;16.10;99.90;;;;;;4938093;28;20555;-73
2023/04/23 09:49:48;;;;;;;37.15;34.75;;;16.20;99.90;;;;;;4940087;28;20050;-73
2023/04/23 09:52:16;;;;;;;37.65;35.10;;;16.60;99.90;;;;;;4940889;28;20051;-73
2023/04/23 09:54:45;;;;;;;36.60;34.17;;;16.70;99.90;;;;;;4940780;28;20118;-74
2023/04/23 09:57:12;;;;;;;34.55;32.42;;;16.90;99.90;;;;;;4936882;28;20050;-75
2023/04/23 09:59:39;;;;;;;31.73;29.60;;;16.90;99.90;;;;;;4931881;28;20544;-73
2023/04/23 10:02:11;;;;;;;32.63;30.52;;;17.10;99.90;;;;;;4939595;28;20162;-74
2023/04/23 10:04:38;;;;;;;32.45;30.42;;;17.20;99.90;;;;;;4920342;28;20042;-74
2023/04/23 10:07:12;;;;;;;32.13;30.08;;;17.10;99.90;;;;;;4919337;28;20166;-78
2023/04/23 10:09:42;;;;;;;34.08;31.98;;;16.80;99.90;;;;;;4941180;28;21402;-74
2023/04/23 10:12:10;;;;;;;33.25;31.10;;;16.50;99.90;;;;;;4939939;28;20070;-72
2023/04/23 10:14:58;;;;;;;32.53;30.25;;;16.40;99.90;;;;;;4940659;28;20515;-75
2023/04/23 10:17:25;;;;;;;39.50;37.10;;;16.40;99.90;;;;;;4934398;28;20301;-73
2023/04/23 10:19:54;;;;;;;33.00;31.00;;;16.90;99.90;;;;;;4938959;28;20407;-73
2023/04/23 10:22:21;;;;;;;30.60;28.52;;;17.40;99.90;;;;;;4941450;28;20047;-74
2023/04/23 10:24:54;;;;;;;32.10;30.30;;;17.70;99.90;;;;;;4935126;28;20043;-74
2023/04/23 10:27:26;;;;;;;33.33;31.40;;;17.80;99.90;;;;;;4944404;28;20423;-76
2023/04/23 10:30:13;;;;;;;39.35;37.15;;;18.00;99.90;;;;;;4933923;28;20038;-77
2023/04/23 10:32:41;;;;;;;40.45;38.30;;;17.80;99.90;;;;;;4931829;28;20126;-74
2023/04/23 10:35:08;;;;;;;33.03;30.92;;;18.00;99.90;;;;;;4934979;28;20397;-75
2023/04/23 10:37:36;;;;;;;30.15;28.40;;;18.40;99.90;;;;;;4921096;28;20038;-72
2023/04/23 10:40:10;;;;;;;31.73;29.83;;;18.40;99.90;;;;;;4939623;28;20464;-73
2023/04/23 10:42:39;;;;;;;35.60;33.50;;;18.30;99.90;;;;;;4925829;28;20046;-78
2023/04/23 10:45:19;;;;;;;31.33;28.88;;;18.00;99.90;;;;;;4941472;28;20105;-74
2023/04/23 10:47:52;;;;;;;;;;;18.00;99.90;;;;;;4943492;28;20061;-78
2023/04/23 10:50:25;;;;;;;31.65;29.70;;;17.80;99.90;;;;;;4945697;28;19922;-74
2023/04/23 10:52:53;;;;;;;32.35;30.45;;;17.50;99.90;;;;;;4939775;28;20431;-73
2023/04/23 10:55:22;;;;;;;32.63;30.70;;;17.50;99.90;;;;;;4940414;28;20054;-75
2023/04/23 10:57:56;;;;;;;31.80;29.73;;;17.40;99.90;;;;;;4935514;28;20051;-75
2023/04/23 11:00:28;;;;;;;34.33;32.17;;;17.20;99.90;;;;;;4955080;28;20459;-72
2023/04/23 11:02:55;;;;;;;31.67;29.50;;;17.10;99.90;;;;;;4940791;28;20370;-72
2023/04/23 11:05:24;;;;;;;32.03;30.08;;;17.30;99.90;;;;;;4938593;28;20047;-74
2023/04/23 11:08:07;;;;;;;32.95;30.85;;;17.50;99.90;;;;;;4942111;28;20057;-74
2023/04/23 11:10:59;;;;;;;33.00;30.90;;;17.50;99.90;;;;;;4935938;28;20153;-73
2023/04/23 11:13:28;;;;;;;33.70;31.70;;;17.40;99.90;;;;;;4946412;28;20054;-73
2023/04/23 11:16:14;;;;;;;45.13;42.63;;;17.60;99.90;;;;;;4939401;28;20049;-75
2023/04/23 11:19:07;;;;;;;32.05;29.95;;;17.70;99.90;;;;;;4938746;28;20574;-74
2023/04/23 11:21:57;;;;;;;35.67;33.75;;;17.80;99.90;;;;;;4939351;28;20061;-74
2023/04/23 11:24:28;;;;;;;30.58;28.73;;;18.00;99.90;;;;;;4934466;28;20366;-75
2023/04/23 11:26:55;;;;;;;32.85;30.95;;;18.00;99.90;;;;;;4943184;28;20133;-74
2023/04/23 11:29:23;;;;;;;33.75;31.75;;;17.90;99.90;;;;;;4945617;28;20054;-75
2023/04/23 11:31:52;;;;;;;32.17;29.67;;;17.80;99.90;;;;;;4933896;28;20050;-73
2023/04/23 11:34:22;;;;;;;34.42;32.55;;;18.00;99.90;;;;;;4939538;28;20233;-75
2023/04/23 11:36:52;;;;;;;37.55;35.55;;;17.80;99.90;;;;;;4939210;28;20987;-75
2023/04/23 11:39:25;;;;;;;34.55;32.83;;;17.50;99.90;;;;;;4943828;28;20345;-77
2023/04/23 11:41:52;;;;;;;35.60;33.63;;;17.30;99.90;;;;;;4937792;28;20138;-76
2023/04/23 11:44:20;;;;;;;37.72;35.13;;;16.60;99.90;;;;;;4939056;28;20051;-74
2023/04/23 11:46:48;;;;;;;35.55;33.65;;;16.00;99.90;;;;;;4935510;28;20271;-74
2023/04/23 11:49:17;;;;;;;33.42;31.73;;;15.60;99.90;;;;;;4938846;28;20388;-74
2023/04/23 11:51:45;;;;;;;32.13;30.23;;;15.40;99.90;;;;;;4940186;28;20591;-74
2023/04/23 11:54:13;;;;;;;30.90;29.10;;;15.20;99.90;;;;;;4946824;28;20047;-73
2023/04/23 11:56:40;;;;;;;28.88;27.10;;;15.20;99.90;;;;;;4938795;28;20557;-74
2023/04/23 11:59:08;;;;;;;33.33;31.38;;;15.50;99.90;;;;;;4940871;28;20696;-74
2023/04/23 12:01:45;;;;;;;31.98;30.05;;;15.70;99.90;;;;;;4938310;28;20134;-75
2023/04/23 12:04:20;;;;;;;35.10;32.90;;;15.90;99.90;;;;;;4941705;28;20526;-74
2023/04/23 12:06:49;;;;;;;35.33;33.33;;;15.90;99.90;;;;;;4931365;28;20443;-73
2023/04/23 12:09:18;;;;;;;36.40;34.40;;;15.80;99.90;;;;;;4944514;28;20427;-76
2023/04/23 12:11:45;;;;;;;37.92;35.83;;;16.00;99.90;;;;;;4935622;28;20185;-75
2023/04/23 12:14:14;;;;;;;35.80;33.80;;;16.20;99.90;;;;;;4942377;28;20468;-75
2023/04/23 12:16:42;;;;;;;28.77;27.05;;;16.50;99.90;;;;;;4941046;28;20034;-76
2023/04/23 12:19:16;;;;;;;32.63;30.42;;;16.70;99.90;;;;;;4940666;28;20133;-76
2023/04/23 12:21:53;;;;;;;32.65;30.55;;;16.80;99.90;;;;;;4917808;28;20129;-76
2023/04/23 12:24:25;;;;;;;33.30;31.40;;;16.70;99.90;;;;;;4939027;28;20051;-75
2023/04/23 12:26:59;;;;;;;34.33;32.53;;;16.90;99.90;;;;;;4935854;28;20863;-76
2023/04/23 12:29:28;;;;;;;35.78;33.90;;;16.80;99.90;;;;;;4938389;28;20042;-75
2023/04/23 12:31:58;;;;;;;34.83;32.80;;;16.70;99.90;;;;;;4933139;28;20301;-76